Time;durP1;ratioP1;P1;durP2;ratioP2;P2;SDS_P1;SDS_P2;PMS_P1;PMS_P2;Temp;Humidity;BMP_temperature;BMP_pressure;BME280_temperature;BME280_humidity;BME280_pressure;Samples;Min_cycle;Max_cycle;Signal;HPM_P1;HPM_P2
2021/04/13 00:03:07;;;;;;;2.80;2.60;;;;;;;3.03;69.73;102595.75;6224130;28;20232;-54
2021/04/13 00:06:32;;;;;;;3.23;2.93;;;;;;;3.19;68.84;102589.66;6229620;28;20232;-52
2021/04/13 00:09:56;;;;;;;6.30;3.80;;;;;;;3.16;69.20;102589.53;6219005;28;20255;-49
2021/04/13 00:13:18;;;;;;;3.00;2.23;;;;;;;3.42;68.48;102592.50;6221767;28;20240;-53
2021/04/13 00:16:39;;;;;;;3.33;3.13;;;;;;;3.25;67.91;102589.97;6228580;28;20729;-54
2021/04/13 00:20:08;;;;;;;5.97;3.50;;;;;;;3.15;68.55;102583.47;6227474;28;20229;-54
2021/04/13 00:23:30;;;;;;;3.10;2.80;;;;;;;3.29;68.68;102576.44;6215606;28;20264;-52
2021/04/13 00:26:55;;;;;;;2.90;2.70;;;;;;;3.49;67.97;102573.94;6252721;28;20229;-52
2021/04/13 00:30:18;;;;;;;3.53;2.67;;;;;;;3.39;68.32;102582.91;6225693;28;20324;-54
2021/04/13 00:33:39;;;;;;;5.97;3.40;;;;;;;3.50;67.35;102573.16;6236475;28;20233;-52
2021/04/13 00:37:12;;;;;;;3.07;2.87;;;;;;;2.95;69.82;102569.63;6238216;28;20537;-51
2021/04/13 00:40:33;;;;;;;3.73;3.43;;;;;;;3.37;68.99;102578.50;6234890;28;22879;-52
2021/04/13 00:44:01;;;;;;;5.53;3.83;;;;;;;3.46;67.63;102573.81;6226009;28;20248;-54
2021/04/13 00:47:25;;;;;;;4.23;3.50;;;;;;;3.21;68.07;102572.59;6214001;28;20243;-55
2021/04/13 00:50:51;;;;;;;4.20;3.33;;;;;;;3.42;68.44;102569.31;6227332;28;20555;-53
2021/04/13 00:54:20;;;;;;;3.90;3.20;;;;;;;2.82;69.90;102574.09;6222857;28;20806;-55
2021/04/13 00:57:42;;;;;;;3.43;3.10;;;;;;;3.32;69.08;102566.28;6225880;28;20236;-53
2021/04/13 01:01:10;;;;;;;3.90;3.10;;;;;;;3.07;69.80;102576.19;6229401;28;20673;-52
2021/04/13 01:04:34;;;;;;;4.73;3.10;;;;;;;3.03;69.59;102579.44;6233406;28;20236;-55
2021/04/13 01:07:55;;;;;;;5.10;3.40;;;;;;;3.12;69.78;102572.16;6230687;28;21064;-54
2021/04/13 01:11:18;;;;;;;3.53;3.20;;;;;;;2.79;70.52;102572.22;6228120;28;20629;-55
2021/04/13 01:14:38;;;;;;;6.87;3.37;;;;;;;2.72;71.25;102571.03;6238975;28;20237;-54
2021/04/13 01:18:00;;;;;;;4.63;3.50;;;;;;;2.62;71.47;102573.03;6216389;28;20240;-50
2021/04/13 01:21:34;;;;;;;4.67;3.07;;;;;;;3.02;70.26;102570.81;6224023;28;20256;-51
2021/04/13 01:24:59;;;;;;;4.63;3.03;;;;;;;3.53;67.81;102570.72;6227505;28;20528;-51
2021/04/13 01:28:23;;;;;;;5.27;3.40;;;;;;;2.98;69.57;102571.47;6245109;28;20255;-55
2021/04/13 01:31:49;;;;;;;5.37;3.10;;;;;;;3.13;69.13;102585.09;6226181;28;20225;-51
2021/04/13 01:35:13;;;;;;;3.50;3.20;;;;;;;3.17;69.07;102583.56;6236128;28;20221;-53
2021/04/13 01:38:41;;;;;;;3.70;3.40;;;;;;;2.75;71.28;102578.03;6234699;28;20233;-55
2021/04/13 01:42:02;;;;;;;3.47;2.70;;;;;;;2.63;71.18;102587.69;6237241;28;21918;-50
2021/04/13 01:45:25;;;;;;;5.17;3.27;;;;;;;2.90;70.57;102576.22;6232205;28;20236;-51
2021/04/13 01:48:47;;;;;;;4.87;3.90;;;;;;;2.60;71.10;102584.94;6235646;28;20236;-53
2021/04/13 01:52:11;;;;;;;4.00;3.47;;;;;;;2.97;70.64;102582.59;6232302;28;20244;-53
2021/04/13 01:55:33;;;;;;;7.37;4.43;;;;;;;2.78;71.01;102579.88;6233265;28;20229;-55
2021/04/13 01:58:59;;;;;;;8.30;4.57;;;;;;;2.47;72.25;102574.03;6237318;28;20253;-54
2021/04/13 02:02:27;;;;;;;4.50;4.10;;;;;;;2.76;71.76;102580.69;6221830;28;20237;-55
2021/04/13 02:05:53;;;;;;;4.90;4.50;;;;;;;2.98;70.56;102573.16;6234358;28;20225;-49
2021/04/13 02:09:26;;;;;;;5.63;4.40;;;;;;;2.52;72.70;102582.88;6234242;28;20602;-50
2021/04/13 02:12:55;;;;;;;8.03;3.67;;;;;;;2.33;73.57;102578.47;6249700;28;20235;-54
2021/04/13 02:16:19;;;;;;;5.13;3.70;;;;;;;2.69;71.96;102576.00;6235196;28;20228;-53
2021/04/13 02:19:45;;;;;;;8.93;3.60;;;;;;;2.65;72.64;102579.22;6238547;28;20228;-53
2021/04/13 02:23:06;;;;;;;5.07;3.80;;;;;;;2.36;73.99;102564.88;6234342;28;20220;-55
2021/04/13 02:26:28;;;;;;;4.27;2.87;;;;;;;2.35;74.00;102566.56;6228798;28;20236;-56
2021/04/13 02:29:51;;;;;;;9.83;3.57;;;;;;;2.54;73.40;102563.25;6229449;28;20638;-54
2021/04/13 02:33:20;;;;;;;8.20;3.60;;;;;;;2.72;72.92;102576.19;6220115;28;20255;-55
2021/04/13 02:36:44;;;;;;;5.73;4.40;;;;;;;2.70;72.64;102566.63;6234722;28;20228;-54
2021/04/13 02:40:07;;;;;;;4.97;3.53;;;;;;;2.70;72.42;102570.06;6226804;28;20228;-54
2021/04/13 02:43:32;;;;;;;8.23;3.33;;;;;;;2.60;73.31;102579.81;6229049;28;20252;-52
2021/04/13 02:46:56;;;;;;;5.00;3.10;;;;;;;2.74;71.94;102565.97;6230876;28;20259;-52
2021/04/13 02:50:20;;;;;;;5.27;3.40;;;;;;;2.44;73.92;102570.41;6228551;28;20549;-53
2021/04/13 02:53:43;;;;;;;4.93;3.93;;;;;;;2.70;72.74;102576.91;6229971;28;20240;-54
2021/04/13 02:57:07;;;;;;;7.77;3.23;;;;;;;2.91;71.71;102578.00;6228244;28;20232;-53
2021/04/13 03:00:34;;;;;;;5.67;3.20;;;;;;;3.03;71.75;102574.28;6229806;28;20224;-52
2021/04/13 03:04:03;;;;;;;6.00;3.60;;;;;;;2.61;72.75;102579.00;6227617;28;20228;-55
2021/04/13 03:07:27;;;;;;;6.43;3.17;;;;;;;2.74;72.83;102578.84;6228508;28;20227;-54
2021/04/13 03:10:50;;;;;;;5.80;3.20;;;;;;;2.56;72.88;102589.94;6229022;28;20232;-54
2021/04/13 03:14:11;;;;;;;6.60;3.57;;;;;;;2.38;73.68;102578.69;6236356;28;20240;-53
2021/04/13 03:17:33;;;;;;;4.80;3.80;;;;;;;2.69;72.79;102580.28;6234689;28;20232;-52
2021/04/13 03:20:58;;;;;;;8.73;4.03;;;;;;;2.66;72.21;102580.16;6234636;28;20832;-54
2021/04/13 03:24:24;;;;;;;5.57;3.53;;;;;;;2.58;73.00;102581.41;6232473;28;20304;-55
2021/04/13 03:27:45;;;;;;;4.43;4.03;;;;;;;2.58;73.57;102572.03;6229004;28;20229;-55
2021/04/13 03:31:07;;;;;;;5.53;3.80;;;;;;;2.64;72.71;102579.19;6225289;28;20232;-55
2021/04/13 03:34:28;;;;;;;6.83;3.27;;;;;;;2.80;72.80;102579.16;6220429;28;20654;-51
2021/04/13 03:37:51;;;;;;;6.10;3.93;;;;;;;2.63;72.74;102579.97;6241991;28;20228;-54
2021/04/13 03:41:14;;;;;;;11.60;5.83;;;;;;;2.53;73.90;102592.34;6226611;28;20270;-54
2021/04/13 03:44:37;;;;;;;6.43;3.70;;;;;;;2.47;73.59;102586.88;6228977;28;20268;-54
2021/04/13 03:48:01;;;;;;;6.40;3.67;;;;;;;2.48;74.39;102596.38;6234077;28;20252;-52
2021/04/13 03:51:27;;;;;;;14.87;5.37;;;;;;;2.45;74.32;102588.50;6234277;28;20598;-53
2021/04/13 03:54:47;;;;;;;4.97;3.77;;;;;;;2.38;74.57;102588.09;6238996;28;20232;-55
2021/04/13 03:58:19;;;;;;;8.43;4.70;;;;;;;2.62;73.40;102609.06;6240449;28;20240;-51
2021/04/13 04:01:39;;;;;;;8.83;5.30;;;;;;;2.36;74.98;102614.63;6222827;28;20235;-52
2021/04/13 04:05:09;;;;;;;7.60;4.83;;;;;;;2.45;74.87;102600.47;6239059;28;20558;-54
2021/04/13 04:08:36;;;;;;;5.10;4.37;;;;;;;2.25;75.95;102618.31;6228597;28;20228;-56
2021/04/13 04:11:59;;;;;;;5.87;5.10;;;;;;;2.23;75.27;102603.59;6231336;28;20259;-50
2021/04/13 04:15:27;;;;;;;8.23;6.67;;;;;;;2.76;74.34;102608.97;6228153;28;20229;-52
2021/04/13 04:18:50;;;;;;;5.63;5.03;;;;;;;2.52;74.11;102613.75;6235315;28;20545;-53
2021/04/13 04:22:14;;;;;;;7.03;5.37;;;;;;;2.56;74.87;102610.53;6239028;28;20229;-55
2021/04/13 04:25:41;;;;;;;6.70;5.30;;;;;;;2.78;73.12;102611.63;6228153;28;20240;-51
2021/04/13 04:29:15;;;;;;;6.30;5.47;;;;;;;2.81;73.14;102610.91;6242944;28;20225;-55
2021/04/13 04:32:40;;;;;;;7.03;4.00;;;;;;;2.51;74.77;102627.41;6222230;28;20252;-53
2021/04/13 04:36:01;;;;;;;7.87;5.07;;;;;;;2.66;74.11;102626.44;6224674;28;20315;-53
2021/04/13 04:39:24;;;;;;;9.40;5.87;;;;;;;2.55;74.60;102631.03;6240620;28;20236;-54
2021/04/13 04:42:52;;;;;;;7.60;6.43;;;;;;;2.64;74.44;102639.22;6219322;28;20233;-55
2021/04/13 04:46:31;;;;;;;10.13;5.07;;;;;;;2.95;73.42;102648.53;6228779;28;20685;-55
2021/04/13 04:49:52;;;;;;;8.37;5.63;;;;;;;2.49;74.74;102644.44;6231759;28;20606;-53
2021/04/13 04:53:12;;;;;;;9.07;4.37;;;;;;;2.68;73.87;102650.56;6235113;28;20335;-55
2021/04/13 04:56:33;;;;;;;5.23;4.53;;;;;;;2.93;73.09;102642.44;6230527;28;20611;-55
2021/04/13 04:59:55;;;;;;;7.13;4.07;;;;;;;2.61;73.92;102653.63;6233882;28;20260;-50
2021/04/13 05:03:16;;;;;;;5.17;3.57;;;;;;;2.52;74.91;102639.47;6231113;28;20638;-53
2021/04/13 05:06:37;;;;;;;9.47;3.70;;;;;;;2.84;73.75;102632.53;6228794;28;20311;-56
2021/04/13 05:09:57;;;;;;;10.30;4.60;;;;;;;2.98;73.24;102646.09;6228940;28;20244;-54
2021/04/13 05:13:18;;;;;;;4.30;3.90;;;;;;;3.04;73.50;102650.69;6220013;28;20229;-54
2021/04/13 05:16:40;;;;;;;4.93;3.17;;;;;;;2.52;75.17;102657.47;6227999;28;20221;-54
2021/04/13 05:20:00;;;;;;;7.00;4.57;;;;;;;3.03;73.10;102665.25;6234208;28;20224;-56
2021/04/13 05:23:21;;;;;;;8.30;4.07;;;;;;;2.59;74.72;102670.66;6221319;28;20232;-53
2021/04/13 05:26:42;;;;;;;7.60;3.47;;;;;;;2.98;73.82;102669.28;6232324;28;20252;-55
2021/04/13 05:30:03;;;;;;;11.43;4.90;;;;;;;3.06;73.54;102675.69;6229590;28;20240;-56
2021/04/13 05:33:25;;;;;;;8.90;4.00;;;;;;;2.78;74.75;102675.97;6231414;28;20225;-56
2021/04/13 05:36:49;;;;;;;18.07;6.27;;;;;;;3.25;72.88;102680.09;6232728;28;20697;-59
2021/04/13 05:40:15;;;;;;;5.60;3.67;;;;;;;3.18;73.36;102680.63;6219727;28;20229;-55
2021/04/13 05:43:38;;;;;;;8.57;3.93;;;;;;;3.81;70.09;102682.84;6231861;28;20237;-56
2021/04/13 05:46:59;;;;;;;5.70;3.60;;;;;;;3.61;71.40;102687.91;6229951;28;20228;-54
2021/04/13 05:50:24;;;;;;;9.97;5.00;;;;;;;2.92;73.35;102687.84;6217734;28;20304;-56
2021/04/13 05:53:45;;;;;;;8.23;4.33;;;;;;;3.78;70.66;102700.72;6230721;28;20233;-54
2021/04/13 05:57:07;;;;;;;15.07;4.87;;;;;;;3.80;70.74;102699.09;6223919;28;20237;-52
2021/04/13 06:00:29;;;;;;;8.27;4.07;;;;;;;3.49;71.64;102702.75;6233434;28;20236;-56
2021/04/13 06:03:49;;;;;;;5.57;3.67;;;;;;;3.91;70.30;102703.97;6231742;28;20232;-52
2021/04/13 06:07:11;;;;;;;9.67;4.20;;;;;;;3.67;73.27;102708.81;6231534;28;20311;-55
2021/04/13 06:10:31;;;;;;;7.70;3.80;;;;;;;4.37;71.71;102701.81;6230370;28;20229;-56
2021/04/13 06:13:56;;;;;;;5.13;4.30;;;;;;;4.46;68.79;102700.56;6233125;28;20255;-57
2021/04/13 06:17:18;;;;;;;9.10;3.80;;;;;;;4.80;67.87;102707.25;6224291;28;20602;-55
2021/04/13 06:20:38;;;;;;;7.13;3.40;;;;;;;4.09;69.25;102716.88;6232445;28;20225;-57
2021/04/13 06:24:00;;;;;;;9.33;3.97;;;;;;;4.11;70.02;102720.41;6236309;28;20745;-58
2021/04/13 06:27:20;;;;;;;9.00;3.87;;;;;;;4.09;69.48;102713.41;6231313;28;20219;-55
2021/04/13 06:30:43;;;;;;;4.77;3.13;;;;;;;4.79;67.99;102705.50;6233331;28;20532;-53
2021/04/13 06:34:04;;;;;;;7.20;4.10;;;;;;;4.77;69.07;102717.44;6227196;28;20256;-50
2021/04/13 06:37:25;;;;;;;3.93;3.37;;;;;;;5.02;68.38;102709.09;6236235;28;20829;-55
2021/04/13 06:40:59;;;;;;;6.23;3.40;;;;;;;4.29;70.36;102722.09;6232403;28;20245;-57
2021/04/13 06:45:02;;;;;;;6.50;4.13;;;;;;;4.60;69.89;102728.69;6216785;28;20625;-54
2021/04/13 06:48:47;;;;;;;6.93;3.37;;;;;;;4.49;70.30;102731.63;6235747;28;20629;-53
2021/04/13 06:52:19;;;;;;;7.53;3.97;;;;;;;4.09;71.53;102742.66;6225907;28;20229;-52
2021/04/13 06:56:08;;;;;;;7.10;3.70;;;;;;;4.68;69.23;102735.09;6229059;28;20232;-52
2021/04/13 06:59:58;;;;;;;9.37;4.87;;;;;;;5.06;68.26;102741.06;6227125;28;20236;-55
2021/04/13 07:03:27;;;;;;;4.90;3.33;;;;;;;4.30;69.58;102749.66;6230760;28;20228;-55
2021/04/13 07:06:57;;;;;;;6.40;3.90;;;;;;;4.68;68.83;102748.88;6229894;28;20485;-54
2021/04/13 07:10:22;;;;;;;7.40;5.13;;;;;;;5.05;67.82;102744.50;6226052;28;20239;-54
2021/04/13 07:13:50;;;;;;;7.90;3.03;;;;;;;5.75;65.35;102745.75;6226884;28;20832;-55
2021/04/13 07:17:17;;;;;;;5.97;3.70;;;;;;;5.14;67.67;102757.81;6227904;28;20228;-56
2021/04/13 07:20:44;;;;;;;6.53;3.67;;;;;;;5.62;65.35;102752.09;6231874;28;20693;-55
2021/04/13 07:24:11;;;;;;;7.80;3.67;;;;;;;5.58;65.19;102750.22;6229792;28;20699;-54
2021/04/13 07:27:37;;;;;;;6.30;3.47;;;;;;;5.82;64.21;102751.25;6240623;28;20559;-54
2021/04/13 07:31:01;;;;;;;7.70;2.60;;;;;;;5.44;65.38;102750.50;6228498;28;20225;-52
2021/04/13 07:34:23;;;;;;;4.10;2.40;;;;;;;5.37;65.62;102757.91;6236032;28;20319;-54
2021/04/13 07:37:45;;;;;;;8.43;2.67;;;;;;;5.04;66.51;102763.38;6238604;28;20229;-49
2021/04/13 07:41:10;;;;;;;7.70;2.33;;;;;;;5.08;65.70;102760.13;6233334;28;20228;-53
2021/04/13 07:44:42;;;;;;;3.20;1.73;;;;;;;5.65;65.42;102765.16;6231310;28;20237;-51
2021/04/13 07:48:22;;;;;;;4.57;2.20;;;;;;;6.17;63.14;102772.53;6237932;28;20665;-57
2021/04/13 07:51:56;;;;;;;6.13;2.53;;;;;;;6.37;62.17;102775.03;6222597;28;20228;-53
2021/04/13 07:55:22;;;;;;;5.33;2.10;;;;;;;6.56;61.93;102774.03;6230623;28;20252;-55
2021/04/13 07:58:48;;;;;;;10.90;3.00;;;;;;;6.13;63.28;102777.50;6237334;28;20240;-57
2021/04/13 08:02:09;;;;;;;6.67;2.53;;;;;;;7.13;60.36;102765.81;6236764;28;20323;-57
2021/04/13 08:05:41;;;;;;;8.33;3.27;;;;;;;6.04;62.92;102772.84;6234412;28;20331;-54
2021/04/13 08:09:27;;;;;;;4.87;2.10;;;;;;;6.69;61.89;102789.22;6233828;28;20311;-55
2021/04/13 08:12:54;;;;;;;2.77;1.90;;;;;;;6.98;60.50;102781.66;6233302;28;20228;-53
2021/04/13 08:16:28;;;;;;;7.03;2.10;;;;;;;6.58;61.96;102778.44;6226923;28;20564;-57
2021/04/13 08:20:00;;;;;;;8.20;2.70;;;;;;;6.48;61.88;102779.78;6218492;28;20232;-55
2021/04/13 08:23:37;;;;;;;12.60;3.80;;;;;;;7.78;57.80;102776.72;6224059;28;20244;-56
2021/04/13 08:27:23;;;;;;;8.57;3.20;;;;;;;7.66;57.99;102779.78;6227280;28;20221;-57
2021/04/13 08:34:47;;;;;;;7.60;3.70;;;;;;;6.38;62.64;102788.03;6226763;28;20240;-53
2021/04/13 08:38:26;;;;;;;11.63;4.00;;;;;;;6.71;61.01;102782.41;6230487;28;20605;-56
2021/04/13 08:42:03;;;;;;;11.97;3.80;;;;;;;7.40;59.82;102777.16;6231084;28;20236;-50
2021/04/13 08:45:32;;;;;;;9.80;5.30;;;;;;;7.21;59.85;102780.81;6228148;28;20264;-50
2021/04/13 08:49:01;;;;;;;8.60;3.10;;;;;;;7.26;59.40;102779.25;6223151;28;20224;-54
2021/04/13 08:52:38;;;;;;;8.33;3.80;;;;;;;7.45;59.98;102767.81;6232596;28;20232;-50
2021/04/13 08:56:06;;;;;;;11.30;4.80;;;;;;;7.80;58.72;102773.34;6235622;28;20228;-55
2021/04/13 08:59:37;;;;;;;11.73;4.83;;;;;;;8.59;55.50;102770.69;6229117;28;20219;-49
2021/04/13 09:03:01;;;;;;;11.57;3.93;;;;;;;8.71;57.51;102767.59;6227621;28;20315;-52
2021/04/13 09:06:32;;;;;;;9.43;3.13;;;;;;;9.70;54.33;102765.97;6231863;28;20319;-53
2021/04/13 09:10:11;;;;;;;9.50;2.67;;;;;;;9.77;50.21;102760.06;6234623;28;20236;-52
2021/04/13 09:13:36;;;;;;;9.50;2.87;;;;;;;9.79;49.29;102750.59;6230246;28;20319;-52
2021/04/13 09:17:02;;;;;;;5.70;2.50;;;;;;;10.26;48.32;102758.69;6231838;28;20836;-50
2021/04/13 09:20:36;;;;;;;11.07;4.23;;;;;;;9.29;50.12;102752.78;6219285;28;20225;-53
2021/04/13 09:24:01;;;;;;;8.63;3.03;;;;;;;9.96;49.69;102749.28;6225210;28;20229;-52
2021/04/13 09:27:31;;;;;;;8.23;2.40;;;;;;;9.59;50.02;102748.34;6223929;28;20228;-48
2021/04/13 09:31:08;;;;;;;9.77;3.63;;;;;;;9.38;46.46;102753.91;6235924;28;20626;-52
2021/04/13 09:34:37;;;;;;;11.37;3.93;;;;;;;9.06;44.87;102756.47;6229524;28;20235;-51
2021/04/13 09:38:17;;;;;;;10.30;3.17;;;;;;;9.29;43.84;102753.66;6242378;28;20233;-54
2021/04/13 09:41:58;;;;;;;8.37;2.20;;;;;;;10.04;44.28;102747.75;6229202;28;20244;-53
2021/04/13 09:45:25;;;;;;;10.50;3.80;;;;;;;9.63;43.04;102734.63;6228028;28;20697;-53
2021/04/13 09:49:07;;;;;;;8.60;2.80;;;;;;;10.00;42.45;102732.91;6249287;28;20937;-56
2021/04/13 09:52:42;;;;;;;5.80;2.87;;;;;;;10.78;40.09;102725.97;6236453;28;20235;-55
2021/04/13 09:56:18;;;;;;;6.50;2.60;;;;;;;9.72;41.61;102738.28;6224332;28;20831;-52
2021/04/13 10:00:10;;;;;;;9.53;2.77;;;;;;;10.24;40.97;102749.94;6232245;28;20224;-55
2021/04/13 10:03:58;;;;;;;7.63;3.30;;;;;;;10.93;39.59;102727.13;6235635;28;20232;-54
2021/04/13 10:07:39;;;;;;;8.20;2.67;;;;;;;11.18;37.84;102729.34;6225306;28;20244;-54
2021/04/13 10:11:30;;;;;;;5.63;1.87;;;;;;;10.97;39.11;102708.09;6228041;28;20232;-56
2021/04/13 10:15:13;;;;;;;5.70;1.90;;;;;;;10.22;38.65;102730.81;6217364;28;20228;-57
2021/04/13 10:19:11;;;;;;;6.83;1.90;;;;;;;9.98;38.27;102737.22;6228296;28;20224;-53
2021/04/13 10:22:51;;;;;;;7.77;2.53;;;;;;;10.77;36.87;102720.72;6225629;28;20497;-55
2021/04/13 10:26:30;;;;;;;6.47;2.07;;;;;;;11.69;36.03;102721.56;6217767;28;20240;-55
2021/04/13 10:30:17;;;;;;;5.20;3.70;;;;;;;11.65;35.76;102725.88;6220564;28;20256;-55
2021/04/13 10:34:17;;;;;;;7.93;4.20;;;;;;;10.62;38.87;102732.59;6237036;28;20622;-56
2021/04/13 10:38:01;;;;;;;8.43;2.77;;;;;;;10.52;40.51;102756.69;6232567;28;20221;-58
2021/04/13 10:41:49;;;;;;;6.80;2.10;;;;;;;10.33;41.12;102737.19;6225328;28;20267;-55
2021/04/13 10:45:45;;;;;;;13.83;4.60;;;;;;;10.81;40.71;102727.75;6230430;28;20221;-55
2021/04/13 10:49:32;;;;;;;8.03;2.93;;;;;;;10.96;40.12;102729.81;6235081;28;20280;-54
2021/04/13 10:53:48;;;;;;;4.87;2.43;;;;;;;11.40;37.94;102724.56;6227245;28;20225;-55
2021/04/13 10:57:28;;;;;;;5.70;1.33;;;;;;;11.02;38.50;102716.88;6234213;28;20225;-55
2021/04/13 11:01:30;;;;;;;8.00;2.50;;;;;;;11.81;37.15;102711.34;6229701;28;20520;-55
2021/04/13 11:05:29;;;;;;;8.77;1.93;;;;;;;11.97;35.06;102718.56;6222432;28;20237;-56
2021/04/13 11:09:16;;;;;;;6.27;2.83;;;;;;;11.53;36.22;102715.19;6213197;28;20546;-55
2021/04/13 11:13:03;;;;;;;12.83;3.70;;;;;;;10.95;37.27;102717.59;6235909;28;20320;-55
2021/04/13 11:16:46;;;;;;;8.70;2.07;;;;;;;10.52;38.41;102724.53;6220186;28;20354;-54
2021/04/13 11:20:19;;;;;;;5.67;2.07;;;;;;;10.73;38.21;102714.56;6217064;28;21002;-55
2021/04/13 11:24:00;;;;;;;6.27;2.00;;;;;;;10.33;37.71;102729.38;6214834;28;20240;-56
2021/04/13 11:28:10;;;;;;;4.83;1.83;;;;;;;10.96;40.36;102719.38;6219764;28;20229;-52
2021/04/13 11:32:03;;;;;;;7.43;2.10;;;;;;;11.49;37.39;102714.25;6208471;28;20244;-55
2021/04/13 11:35:33;;;;;;;3.83;1.60;;;;;;;12.21;35.46;102707.63;6207986;28;20236;-53
2021/04/13 11:39:02;;;;;;;5.30;1.70;;;;;;;11.92;37.22;102711.50;6213839;28;20228;-54
2021/04/13 11:42:28;;;;;;;8.30;2.53;;;;;;;16.54;29.38;102697.69;6215323;28;20228;-57
2021/04/13 11:45:56;;;;;;;6.90;2.25;;;;;;;20.02;21.47;102698.22;6217577;28;20778;-56
2021/04/13 11:49:24;;;;;;;5.47;1.40;;;;;;;21.11;22.88;102692.44;6224535;28;20298;-55
2021/04/13 11:52:51;;;;;;;3.83;1.60;;;;;;;22.98;19.96;102699.75;6221532;28;22152;-51
2021/04/13 11:56:34;;;;;;;4.97;1.48;;;;;;;22.96;17.47;102683.84;6218885;28;20240;-54
2021/04/13 12:00:24;;;;;;;5.43;1.77;;;;;;;20.37;19.47;102699.31;6221382;28;20229;-58
2021/04/13 12:03:58;;;;;;;7.53;2.08;;;;;;;19.04;19.79;102691.03;6215350;28;20233;-55
2021/04/13 12:07:44;;;;;;;5.60;1.55;;;;;;;15.05;24.83;102710.91;6219287;28;20261;-57
2021/04/13 12:11:06;;;;;;;3.60;1.43;;;;;;;17.46;24.18;102712.06;6217388;28;20248;-56
2021/04/13 12:14:46;;;;;;;6.93;2.20;;;;;;;17.75;25.95;102713.59;6214141;28;20228;-54
2021/04/13 12:18:46;;;;;;;4.75;1.92;;;;;;;17.25;26.79;102706.97;6225807;28;20243;-54
2021/04/13 12:22:33;;;;;;;7.78;3.10;;;;;;;20.59;22.55;102705.94;6220973;28;20228;-56
2021/04/13 12:26:08;;;;;;;5.93;2.50;;;;;;;23.94;19.04;102700.13;6231131;28;21861;-56
2021/04/13 12:29:34;;;;;;;7.75;3.30;;;;;;;24.70;18.25;102708.91;6224408;28;20239;-56
2021/04/13 12:32:56;;;;;;;7.70;1.83;;;;;;;20.08;22.04;102713.97;6234769;28;20236;-54
2021/04/13 12:36:41;;;;;;;7.32;2.42;;;;;;;18.99;24.20;102724.53;6229927;28;20229;-53
2021/04/13 12:40:26;;;;;;;3.47;1.50;;;;;;;19.86;21.92;102727.59;6232591;28;20247;-58
2021/04/13 12:43:48;;;;;;;4.43;1.73;;;;;;;19.67;20.57;102734.06;6229249;28;20316;-55
2021/04/13 12:47:09;;;;;;;2.67;1.23;;;;;;;20.64;19.51;102719.06;6228633;28;20224;-55
2021/04/13 12:50:34;;;;;;;3.15;1.02;;;;;;;20.53;19.62;102743.09;6233914;28;20228;-53
2021/04/13 12:54:12;;;;;;;4.50;2.28;;;;;;;17.79;23.20;102741.66;6233830;28;20236;-56
2021/04/13 12:57:32;;;;;;;3.80;1.77;;;;;;;17.82;23.67;102735.50;6231990;28;20232;-54
2021/04/13 13:00:54;;;;;;;4.30;1.40;;;;;;;15.97;25.37;102740.75;6230355;28;20236;-57
2021/04/13 13:04:17;;;;;;;4.47;1.20;;;;;;;14.87;25.44;102740.59;6233749;28;20240;-53
2021/04/13 13:07:38;;;;;;;4.33;1.20;;;;;;;15.84;25.45;102738.16;6230172;28;20319;-56
2021/04/13 13:11:09;;;;;;;4.03;1.63;;;;;;;18.53;22.85;102738.28;6221893;28;20270;-57
2021/04/13 13:14:32;;;;;;;4.50;1.93;;;;;;;15.44;26.79;102737.22;6229084;28;25573;-55
2021/04/13 13:17:52;;;;;;;6.93;3.03;;;;;;;17.07;23.51;102729.91;6222507;28;20566;-55
2021/04/13 13:21:16;;;;;;;2.60;1.40;;;;;;;19.61;19.98;102732.41;6228776;28;20237;-53
2021/04/13 13:24:37;;;;;;;5.20;1.37;;;;;;;17.60;21.57;102722.53;6236038;28;20228;-53
2021/04/13 13:28:04;;;;;;;4.47;2.20;;;;;;;19.23;20.32;102735.63;6231334;28;20251;-53
2021/04/13 13:31:30;;;;;;;3.43;1.33;;;;;;;18.53;23.11;102729.50;6233003;28;20224;-60
2021/04/13 13:34:53;;;;;;;5.97;2.50;;;;;;;14.57;27.68;102742.19;6235988;28;20273;-56
2021/04/13 13:38:18;;;;;;;5.37;1.67;;;;;;;14.07;29.28;102744.50;6229478;28;20233;-56
2021/04/13 13:41:40;;;;;;;6.73;1.37;;;;;;;16.95;26.16;102729.97;6234887;28;20534;-55
2021/04/13 13:45:01;;;;;;;3.80;1.47;;;;;;;14.67;28.96;102724.75;6229374;28;20241;-57
2021/04/13 13:48:26;;;;;;;7.73;1.47;;;;;;;12.88;33.88;102732.00;6222921;28;20224;-56
2021/04/13 13:52:02;;;;;;;4.72;1.73;;;;;;;16.29;28.30;102730.19;6227732;28;20778;-55
2021/04/13 13:55:27;;;;;;;2.60;0.90;;;;;;;16.89;24.82;102722.97;6228012;28;20252;-54
2021/04/13 13:58:48;;;;;;;5.30;1.67;;;;;;;17.24;24.65;102736.84;6228789;28;20605;-56
2021/04/13 14:02:16;;;;;;;4.50;1.47;;;;;;;17.56;25.65;102730.44;6233087;28;20229;-56
2021/04/13 14:05:40;;;;;;;10.57;1.80;;;;;;;13.54;31.01;102744.06;6218386;28;20567;-57
2021/04/13 14:09:12;;;;;;;8.83;2.40;;;;;;;15.12;28.42;102743.28;6222373;28;20230;-56
2021/04/13 14:12:35;;;;;;;1.90;1.13;;;;;;;15.12;27.93;102749.44;6220083;28;20220;-58
2021/04/13 14:15:56;;;;;;;2.73;1.10;;;;;;;15.22;28.23;102738.91;6221377;28;20240;-57
2021/04/13 14:19:20;;;;;;;3.73;1.40;;;;;;;15.14;28.89;102752.94;6226833;28;20529;-58
2021/04/13 14:22:42;;;;;;;3.33;1.23;;;;;;;14.68;29.09;102752.75;6230363;28;20232;-56
2021/04/13 14:26:18;;;;;;;5.00;1.57;;;;;;;14.45;31.04;102755.22;6231382;28;20260;-57
2021/04/13 14:29:40;;;;;;;7.13;1.67;;;;;;;15.05;30.83;102736.28;6226524;28;20328;-56
2021/04/13 14:33:01;;;;;;;5.20;2.17;;;;;;;14.55;31.71;102740.41;6225271;28;20522;-56
2021/04/13 14:36:21;;;;;;;6.43;2.03;;;;;;;14.85;30.54;102747.59;6234720;28;20232;-55
2021/04/13 14:39:45;;;;;;;5.03;1.43;;;;;;;14.21;31.27;102749.81;6220565;28;21047;-55
2021/04/13 14:43:05;;;;;;;3.10;1.93;;;;;;;14.98;29.78;102739.75;6236411;28;20229;-57
2021/04/13 14:46:26;;;;;;;5.43;3.17;;;;;;;15.40;29.64;102736.34;6236640;28;20236;-55
2021/04/13 14:49:47;;;;;;;2.83;1.37;;;;;;;15.42;28.75;102729.34;6221699;28;20240;-58
2021/04/13 14:53:08;;;;;;;8.33;2.07;;;;;;;14.71;29.26;102742.28;6232242;28;20232;-54
2021/04/13 14:56:30;;;;;;;3.20;2.13;;;;;;;13.66;30.41;102739.81;6224502;28;20244;-53
2021/04/13 14:59:52;;;;;;;5.03;2.27;;;;;;;12.79;32.94;102738.88;6227093;28;20232;-56
2021/04/13 15:03:13;;;;;;;6.60;1.93;;;;;;;12.72;33.75;102747.50;6233251;28;20279;-55
2021/04/13 15:06:33;;;;;;;4.97;2.73;;;;;;;13.16;32.33;102741.03;6235747;28;20610;-58
2021/04/13 15:09:54;;;;;;;4.43;1.30;;;;;;;12.94;31.43;102737.31;6232088;28;20241;-54
2021/04/13 15:13:15;;;;;;;3.07;1.53;;;;;;;13.05;31.94;102747.91;6235452;28;20236;-56
2021/04/13 15:16:36;;;;;;;5.60;1.63;;;;;;;13.20;32.80;102734.97;6232066;28;20237;-52
2021/04/13 15:19:57;;;;;;;3.73;1.50;;;;;;;13.70;32.08;102728.50;6230145;28;20225;-54
2021/04/13 15:23:19;;;;;;;2.87;1.53;;;;;;;13.50;32.06;102728.31;6237138;28;20229;-55
2021/04/13 15:26:40;;;;;;;3.67;1.60;;;;;;;13.49;31.14;102732.69;6223973;28;20232;-55
2021/04/13 15:30:03;;;;;;;4.40;1.13;;;;;;;13.56;30.45;102729.25;6224661;28;20266;-56
2021/04/13 15:33:27;;;;;;;4.27;1.23;;;;;;;12.14;33.14;102731.88;6234596;28;20249;-54
2021/04/13 15:36:49;;;;;;;4.23;2.03;;;;;;;11.72;33.48;102734.66;6225789;28;20244;-56
2021/04/13 15:40:10;;;;;;;5.17;2.10;;;;;;;12.04;35.09;102750.00;6222159;28;20232;-54
2021/04/13 15:43:35;;;;;;;5.53;1.40;;;;;;;11.95;36.01;102735.94;6241968;28;20299;-54
2021/04/13 15:46:57;;;;;;;4.80;1.60;;;;;;;12.59;34.57;102735.13;6230537;28;20256;-52
2021/04/13 15:50:18;;;;;;;5.53;1.53;;;;;;;13.22;33.75;102733.22;6231728;28;20970;-55
2021/04/13 15:53:39;;;;;;;9.50;1.73;;;;;;;12.34;34.36;102732.16;6233906;28;20512;-55
2021/04/13 15:57:01;;;;;;;5.30;1.97;;;;;;;13.00;37.89;102725.16;6230494;28;20232;-58
2021/04/13 16:00:22;;;;;;;4.40;1.50;;;;;;;14.13;35.52;102727.09;6234275;28;20232;-54
2021/04/13 16:03:43;;;;;;;1.97;1.13;;;;;;;13.30;33.14;102731.63;6229816;28;20244;-54
2021/04/13 16:07:05;;;;;;;4.17;1.90;;;;;;;13.95;34.54;102726.94;6228460;28;20232;-54
2021/04/13 16:10:26;;;;;;;4.50;1.50;;;;;;;13.08;31.49;102725.25;6231028;28;20278;-54
2021/04/13 16:13:47;;;;;;;5.60;3.63;;;;;;;13.36;31.49;102742.16;6218655;28;20935;-56
2021/04/13 16:17:08;;;;;;;5.27;1.67;;;;;;;12.84;32.48;102730.22;6232121;28;20229;-56
2021/04/13 16:20:29;;;;;;;3.73;2.73;;;;;;;13.31;32.20;102729.88;6231739;28;20233;-58